sensor_id;sensor_type;location;lat;lon;timestamp;P1;durP1;ratioP1;P2;durP2;ratioP2
17169;SDS011;8700;48.222;16.342;2023-12-04T00:00:28;20.00;;;16.53;;
17169;SDS011;8700;48.222;16.342;2023-12-04T00:03:49;20.27;;;18.03;;
17169;SDS011;8700;48.222;16.342;2023-12-04T00:07:10;19.17;;;17.07;;
17169;SDS011;8700;48.222;16.342;2023-12-04T00:10:31;25.03;;;18.00;;
17169;SDS011;8700;48.222;16.342;2023-12-04T00:13:52;20.20;;;17.60;;
17169;SDS011;8700;48.222;16.342;2023-12-04T00:17:14;21.17;;;18.70;;
17169;SDS011;8700;48.222;16.342;2023-12-04T00:20:36;21.63;;;18.13;;
17169;SDS011;8700;48.222;16.342;2023-12-04T00:23:57;23.57;;;20.30;;
17169;SDS011;8700;48.222;16.342;2023-12-04T00:27:18;28.00;;;22.60;;
17169;SDS011;8700;48.222;16.342;2023-12-04T00:30:40;25.37;;;19.87;;
17169;SDS011;8700;48.222;16.342;2023-12-04T00:34:03;24.47;;;19.50;;
17169;SDS011;8700;48.222;16.342;2023-12-04T00:37:24;20.83;;;17.37;;
17169;SDS011;8700;48.222;16.342;2023-12-04T00:40:46;20.87;;;15.97;;
17169;SDS011;8700;48.222;16.342;2023-12-04T00:44:08;19.53;;;17.53;;
17169;SDS011;8700;48.222;16.342;2023-12-04T00:47:29;39.20;;;32.03;;
17169;SDS011;8700;48.222;16.342;2023-12-04T00:50:52;23.70;;;21.17;;
17169;SDS011;8700;48.222;16.342;2023-12-04T00:54:13;26.90;;;20.73;;
17169;SDS011;8700;48.222;16.342;2023-12-04T00:57:34;23.53;;;19.13;;
17169;SDS011;8700;48.222;16.342;2023-12-04T01:00:55;22.23;;;18.00;;
17169;SDS011;8700;48.222;16.342;2023-12-04T01:04:16;23.07;;;18.37;;
17169;SDS011;8700;48.222;16.342;2023-12-04T01:07:39;29.37;;;21.90;;
17169;SDS011;8700;48.222;16.342;2023-12-04T01:10:59;21.17;;;17.37;;
17169;SDS011;8700;48.222;16.342;2023-12-04T01:14:21;18.70;;;16.27;;
17169;SDS011;8700;48.222;16.342;2023-12-04T01:17:42;17.70;;;15.87;;
17169;SDS011;8700;48.222;16.342;2023-12-04T01:21:03;18.73;;;16.73;;
17169;SDS011;8700;48.222;16.342;2023-12-04T01:24:26;20.33;;;18.23;;
17169;SDS011;8700;48.222;16.342;2023-12-04T01:27:47;21.60;;;18.13;;
17169;SDS011;8700;48.222;16.342;2023-12-04T01:31:08;22.03;;;17.13;;
17169;SDS011;8700;48.222;16.342;2023-12-04T01:34:29;21.13;;;16.07;;
17169;SDS011;8700;48.222;16.342;2023-12-04T01:37:50;16.80;;;14.30;;
17169;SDS011;8700;48.222;16.342;2023-12-04T01:41:13;17.97;;;16.07;;
17169;SDS011;8700;48.222;16.342;2023-12-04T01:44:34;19.53;;;14.57;;
17169;SDS011;8700;48.222;16.342;2023-12-04T01:47:55;18.00;;;16.10;;
17169;SDS011;8700;48.222;16.342;2023-12-04T01:51:17;18.83;;;16.93;;
17169;SDS011;8700;48.222;16.342;2023-12-04T01:54:40;19.63;;;17.33;;
17169;SDS011;8700;48.222;16.342;2023-12-04T01:58:03;20.30;;;17.10;;
17169;SDS011;8700;48.222;16.342;2023-12-04T02:01:25;20.20;;;15.93;;
17169;SDS011;8700;48.222;16.342;2023-12-04T02:04:47;19.13;;;14.93;;
17169;SDS011;8700;48.222;16.342;2023-12-04T02:08:09;20.93;;;15.90;;
17169;SDS011;8700;48.222;16.342;2023-12-04T02:11:31;23.87;;;19.93;;
17169;SDS011;8700;48.222;16.342;2023-12-04T02:14:53;19.77;;;16.23;;
17169;SDS011;8700;48.222;16.342;2023-12-04T02:18:14;18.47;;;16.47;;
17169;SDS011;8700;48.222;16.342;2023-12-04T02:21:37;16.63;;;14.87;;
17169;SDS011;8700;48.222;16.342;2023-12-04T02:25:00;16.87;;;15.07;;
17169;SDS011;8700;48.222;16.342;2023-12-04T02:28:21;18.17;;;16.23;;
17169;SDS011;8700;48.222;16.342;2023-12-04T02:31:42;17.60;;;15.30;;
17169;SDS011;8700;48.222;16.342;2023-12-04T02:35:05;16.47;;;14.73;;
17169;SDS011;8700;48.222;16.342;2023-12-04T02:38:28;21.37;;;15.93;;
17169;SDS011;8700;48.222;16.342;2023-12-04T02:41:51;20.63;;;14.87;;
17169;SDS011;8700;48.222;16.342;2023-12-04T02:45:12;20.07;;;16.83;;
17169;SDS011;8700;48.222;16.342;2023-12-04T02:48:33;17.13;;;15.23;;
17169;SDS011;8700;48.222;16.342;2023-12-04T02:51:54;19.23;;;16.83;;
17169;SDS011;8700;48.222;16.342;2023-12-04T02:55:16;19.70;;;16.40;;
17169;SDS011;8700;48.222;16.342;2023-12-04T02:58:39;24.33;;;19.20;;
17169;SDS011;8700;48.222;16.342;2023-12-04T03:02:00;27.77;;;22.27;;
17169;SDS011;8700;48.222;16.342;2023-12-04T03:05:21;28.70;;;22.03;;
17169;SDS011;8700;48.222;16.342;2023-12-04T03:08:42;23.43;;;20.50;;
17169;SDS011;8700;48.222;16.342;2023-12-04T03:12:04;27.37;;;22.33;;
17169;SDS011;8700;48.222;16.342;2023-12-04T03:15:27;29.43;;;21.77;;
17169;SDS011;8700;48.222;16.342;2023-12-04T03:18:49;25.13;;;20.03;;
17169;SDS011;8700;48.222;16.342;2023-12-04T03:22:11;29.07;;;22.60;;
17169;SDS011;8700;48.222;16.342;2023-12-04T03:25:32;29.00;;;22.77;;
17169;SDS011;8700;48.222;16.342;2023-12-04T03:28:53;26.70;;;21.40;;
17169;SDS011;8700;48.222;16.342;2023-12-04T03:32:16;25.57;;;20.63;;
17169;SDS011;8700;48.222;16.342;2023-12-04T03:35:37;27.70;;;22.73;;
17169;SDS011;8700;48.222;16.342;2023-12-04T03:38:58;26.90;;;21.60;;
17169;SDS011;8700;48.222;16.342;2023-12-04T03:42:19;28.40;;;22.47;;
17169;SDS011;8700;48.222;16.342;2023-12-04T03:45:40;32.33;;;23.07;;
17169;SDS011;8700;48.222;16.342;2023-12-04T03:49:03;33.63;;;23.87;;
17169;SDS011;8700;48.222;16.342;2023-12-04T03:52:25;32.27;;;25.57;;
17169;SDS011;8700;48.222;16.342;2023-12-04T03:55:46;28.57;;;24.03;;
17169;SDS011;8700;48.222;16.342;2023-12-04T03:59:08;31.10;;;24.87;;
17169;SDS011;8700;48.222;16.342;2023-12-04T04:02:29;28.43;;;23.07;;
17169;SDS011;8700;48.222;16.342;2023-12-04T04:05:52;30.50;;;25.03;;
17169;SDS011;8700;48.222;16.342;2023-12-04T04:09:13;32.40;;;25.10;;
17169;SDS011;8700;48.222;16.342;2023-12-04T04:12:35;35.10;;;27.17;;
17169;SDS011;8700;48.222;16.342;2023-12-04T04:15:56;31.30;;;25.73;;
17169;SDS011;8700;48.222;16.342;2023-12-04T04:19:17;33.53;;;26.10;;
17169;SDS011;8700;48.222;16.342;2023-12-04T04:22:40;34.43;;;26.03;;
17169;SDS011;8700;48.222;16.342;2023-12-04T04:26:01;31.73;;;25.60;;
17169;SDS011;8700;48.222;16.342;2023-12-04T04:29:22;36.53;;;28.40;;
17169;SDS011;8700;48.222;16.342;2023-12-04T04:32:43;35.53;;;27.80;;
17169;SDS011;8700;48.222;16.342;2023-12-04T04:36:05;39.03;;;28.47;;
17169;SDS011;8700;48.222;16.342;2023-12-04T04:39:30;38.27;;;28.20;;
17169;SDS011;8700;48.222;16.342;2023-12-04T04:42:51;35.00;;;26.73;;
17169;SDS011;8700;48.222;16.342;2023-12-04T04:46:12;29.90;;;25.30;;
17169;SDS011;8700;48.222;16.342;2023-12-04T04:49:33;32.50;;;26.00;;
17169;SDS011;8700;48.222;16.342;2023-12-04T04:52:55;32.07;;;25.67;;
17169;SDS011;8700;48.222;16.342;2023-12-04T04:56:17;28.23;;;22.07;;
17169;SDS011;8700;48.222;16.342;2023-12-04T04:59:38;28.90;;;24.57;;
17169;SDS011;8700;48.222;16.342;2023-12-04T05:03:03;28.40;;;23.27;;
17169;SDS011;8700;48.222;16.342;2023-12-04T05:06:24;25.97;;;22.40;;
17169;SDS011;8700;48.222;16.342;2023-12-04T05:09:45;32.63;;;27.00;;
17169;SDS011;8700;48.222;16.342;2023-12-04T05:13:08;27.63;;;23.20;;
17169;SDS011;8700;48.222;16.342;2023-12-04T05:16:29;31.33;;;24.50;;
17169;SDS011;8700;48.222;16.342;2023-12-04T05:19:50;31.87;;;24.03;;
17169;SDS011;8700;48.222;16.342;2023-12-04T05:23:11;28.77;;;24.23;;
17169;SDS011;8700;48.222;16.342;2023-12-04T05:26:32;25.37;;;22.60;;
17169;SDS011;8700;48.222;16.342;2023-12-04T05:29:55;28.20;;;23.33;;
17169;SDS011;8700;48.222;16.342;2023-12-04T05:33:16;30.37;;;23.37;;
17169;SDS011;8700;48.222;16.342;2023-12-04T05:36:37;31.30;;;24.00;;
17169;SDS011;8700;48.222;16.342;2023-12-04T05:39:58;29.97;;;25.37;;
17169;SDS011;8700;48.222;16.342;2023-12-04T05:43:19;29.83;;;24.30;;
17169;SDS011;8700;48.222;16.342;2023-12-04T05:46:41;29.77;;;25.37;;
17169;SDS011;8700;48.222;16.342;2023-12-04T05:50:03;30.17;;;24.17;;
17169;SDS011;8700;48.222;16.342;2023-12-04T05:53:24;29.00;;;23.13;;
17169;SDS011;8700;48.222;16.342;2023-12-04T05:56:45;32.73;;;25.27;;
17169;SDS011;8700;48.222;16.342;2023-12-04T06:00:07;31.07;;;24.33;;
17169;SDS011;8700;48.222;16.342;2023-12-04T06:03:33;28.37;;;23.43;;
17169;SDS011;8700;48.222;16.342;2023-12-04T06:06:54;32.10;;;23.53;;
17169;SDS011;8700;48.222;16.342;2023-12-04T06:10:16;25.10;;;20.00;;
17169;SDS011;8700;48.222;16.342;2023-12-04T06:13:37;29.93;;;22.70;;
17169;SDS011;8700;48.222;16.342;2023-12-04T06:16:58;31.90;;;24.30;;
17169;SDS011;8700;48.222;16.342;2023-12-04T06:20:21;94.93;;;87.10;;
17169;SDS011;8700;48.222;16.342;2023-12-04T06:23:42;32.37;;;24.00;;
17169;SDS011;8700;48.222;16.342;2023-12-04T06:27:04;29.90;;;23.73;;
17169;SDS011;8700;48.222;16.342;2023-12-04T06:30:28;26.17;;;23.03;;
17169;SDS011;8700;48.222;16.342;2023-12-04T06:33:50;33.57;;;26.17;;
17169;SDS011;8700;48.222;16.342;2023-12-04T06:37:13;28.77;;;25.20;;
17169;SDS011;8700;48.222;16.342;2023-12-04T06:40:35;32.90;;;27.03;;
17169;SDS011;8700;48.222;16.342;2023-12-04T06:43:59;33.77;;;25.77;;
17169;SDS011;8700;48.222;16.342;2023-12-04T06:47:22;32.33;;;28.83;;
17169;SDS011;8700;48.222;16.342;2023-12-04T06:50:43;35.53;;;30.13;;
17169;SDS011;8700;48.222;16.342;2023-12-04T06:54:06;38.77;;;30.10;;
17169;SDS011;8700;48.222;16.342;2023-12-04T06:57:27;34.07;;;28.13;;
17169;SDS011;8700;48.222;16.342;2023-12-04T07:00:48;35.30;;;27.13;;
17169;SDS011;8700;48.222;16.342;2023-12-04T07:04:09;35.57;;;30.60;;
17169;SDS011;8700;48.222;16.342;2023-12-04T07:07:31;35.40;;;29.57;;
17169;SDS011;8700;48.222;16.342;2023-12-04T07:10:53;38.53;;;30.03;;
17169;SDS011;8700;48.222;16.342;2023-12-04T07:14:14;36.67;;;31.90;;
17169;SDS011;8700;48.222;16.342;2023-12-04T07:17:35;32.03;;;28.60;;
17169;SDS011;8700;48.222;16.342;2023-12-04T07:20:57;36.90;;;29.67;;
17169;SDS011;8700;48.222;16.342;2023-12-04T07:24:18;37.07;;;29.60;;
17169;SDS011;8700;48.222;16.342;2023-12-04T07:27:41;36.87;;;29.90;;
17169;SDS011;8700;48.222;16.342;2023-12-04T07:31:02;30.83;;;26.37;;
17169;SDS011;8700;48.222;16.342;2023-12-04T07:34:23;27.80;;;24.60;;
17169;SDS011;8700;48.222;16.342;2023-12-04T07:37:45;33.40;;;28.53;;
17169;SDS011;8700;48.222;16.342;2023-12-04T07:41:06;30.77;;;26.53;;
17169;SDS011;8700;48.222;16.342;2023-12-04T07:44:29;35.77;;;27.30;;
17169;SDS011;8700;48.222;16.342;2023-12-04T07:47:50;30.13;;;25.97;;
17169;SDS011;8700;48.222;16.342;2023-12-04T07:51:11;33.77;;;24.40;;
17169;SDS011;8700;48.222;16.342;2023-12-04T07:54:32;29.00;;;25.43;;
17169;SDS011;8700;48.222;16.342;2023-12-04T07:57:54;29.70;;;26.60;;
17169;SDS011;8700;48.222;16.342;2023-12-04T08:01:17;33.70;;;27.27;;
17169;SDS011;8700;48.222;16.342;2023-12-04T08:04:38;29.97;;;25.33;;
17169;SDS011;8700;48.222;16.342;2023-12-04T08:07:59;30.57;;;25.60;;
17169;SDS011;8700;48.222;16.342;2023-12-04T08:11:20;33.43;;;25.83;;
17169;SDS011;8700;48.222;16.342;2023-12-04T08:14:41;34.43;;;26.60;;
17169;SDS011;8700;48.222;16.342;2023-12-04T08:18:03;30.43;;;25.97;;
17169;SDS011;8700;48.222;16.342;2023-12-04T08:21:25;31.73;;;27.13;;
17169;SDS011;8700;48.222;16.342;2023-12-04T08:24:46;26.17;;;21.83;;
17169;SDS011;8700;48.222;16.342;2023-12-04T08:28:07;33.07;;;25.57;;
17169;SDS011;8700;48.222;16.342;2023-12-04T08:31:29;29.33;;;25.27;;
17169;SDS011;8700;48.222;16.342;2023-12-04T08:34:52;34.17;;;26.13;;
17169;SDS011;8700;48.222;16.342;2023-12-04T08:38:13;30.50;;;27.03;;
17169;SDS011;8700;48.222;16.342;2023-12-04T08:41:34;36.13;;;26.73;;
17169;SDS011;8700;48.222;16.342;2023-12-04T08:44:55;29.07;;;24.03;;
17169;SDS011;8700;48.222;16.342;2023-12-04T08:48:16;27.57;;;24.10;;
17169;SDS011;8700;48.222;16.342;2023-12-04T08:51:39;27.53;;;24.63;;
17169;SDS011;8700;48.222;16.342;2023-12-04T08:55:00;25.57;;;22.27;;
17169;SDS011;8700;48.222;16.342;2023-12-04T08:58:21;31.77;;;25.73;;
17169;SDS011;8700;48.222;16.342;2023-12-04T09:01:42;33.80;;;27.00;;
17169;SDS011;8700;48.222;16.342;2023-12-04T09:05:04;29.77;;;25.43;;
17169;SDS011;8700;48.222;16.342;2023-12-04T09:08:27;37.13;;;28.73;;
17169;SDS011;8700;48.222;16.342;2023-12-04T09:11:48;36.03;;;30.27;;
17169;SDS011;8700;48.222;16.342;2023-12-04T09:15:09;42.60;;;30.63;;
17169;SDS011;8700;48.222;16.342;2023-12-04T09:18:31;34.47;;;27.57;;
17169;SDS011;8700;48.222;16.342;2023-12-04T09:21:52;37.27;;;26.50;;
17169;SDS011;8700;48.222;16.342;2023-12-04T09:25:14;35.40;;;25.93;;
17169;SDS011;8700;48.222;16.342;2023-12-04T09:28:35;34.17;;;27.37;;
17169;SDS011;8700;48.222;16.342;2023-12-04T09:31:56;35.20;;;28.77;;
17169;SDS011;8700;48.222;16.342;2023-12-04T09:35:18;41.63;;;33.23;;
17169;SDS011;8700;48.222;16.342;2023-12-04T09:38:39;37.30;;;30.43;;
17169;SDS011;8700;48.222;16.342;2023-12-04T09:42:01;37.13;;;28.27;;
17169;SDS011;8700;48.222;16.342;2023-12-04T09:45:23;34.97;;;26.57;;
17169;SDS011;8700;48.222;16.342;2023-12-04T09:48:45;36.67;;;28.90;;
17169;SDS011;8700;48.222;16.342;2023-12-04T09:52:06;29.60;;;24.27;;
17169;SDS011;8700;48.222;16.342;2023-12-04T09:55:28;33.93;;;29.17;;
17169;SDS011;8700;48.222;16.342;2023-12-04T09:58:52;37.30;;;28.97;;
17169;SDS011;8700;48.222;16.342;2023-12-04T10:02:18;35.27;;;30.53;;
17169;SDS011;8700;48.222;16.342;2023-12-04T10:05:41;34.77;;;28.87;;
17169;SDS011;8700;48.222;16.342;2023-12-04T10:09:04;30.03;;;26.33;;
17169;SDS011;8700;48.222;16.342;2023-12-04T10:12:30;23.87;;;19.50;;
17169;SDS011;8700;48.222;16.342;2023-12-04T10:15:54;21.67;;;19.37;;
17169;SDS011;8700;48.222;16.342;2023-12-04T10:19:16;22.50;;;20.03;;
17169;SDS011;8700;48.222;16.342;2023-12-04T10:22:39;27.37;;;21.93;;
17169;SDS011;8700;48.222;16.342;2023-12-04T10:26:14;19.20;;;17.17;;
17169;SDS011;8700;48.222;16.342;2023-12-04T10:29:42;23.87;;;20.50;;
17169;SDS011;8700;48.222;16.342;2023-12-04T10:33:06;22.33;;;20.03;;
17169;SDS011;8700;48.222;16.342;2023-12-04T10:36:28;23.93;;;21.20;;
17169;SDS011;8700;48.222;16.342;2023-12-04T10:39:51;22.37;;;19.97;;
17169;SDS011;8700;48.222;16.342;2023-12-04T10:43:16;24.67;;;22.17;;
17169;SDS011;8700;48.222;16.342;2023-12-04T10:46:40;21.73;;;19.47;;
17169;SDS011;8700;48.222;16.342;2023-12-04T10:50:04;24.33;;;21.70;;
17169;SDS011;8700;48.222;16.342;2023-12-04T10:53:26;23.93;;;21.40;;
17169;SDS011;8700;48.222;16.342;2023-12-04T10:56:48;21.13;;;19.03;;
17169;SDS011;8700;48.222;16.342;2023-12-04T11:00:12;23.00;;;20.70;;
17169;SDS011;8700;48.222;16.342;2023-12-04T11:03:36;23.43;;;20.93;;
17169;SDS011;8700;48.222;16.342;2023-12-04T11:07:05;23.33;;;20.83;;
17169;SDS011;8700;48.222;16.342;2023-12-04T11:10:28;21.47;;;19.33;;
17169;SDS011;8700;48.222;16.342;2023-12-04T11:13:54;22.63;;;20.27;;
17169;SDS011;8700;48.222;16.342;2023-12-04T11:17:19;23.07;;;20.40;;
17169;SDS011;8700;48.222;16.342;2023-12-04T11:20:43;19.97;;;17.97;;
17169;SDS011;8700;48.222;16.342;2023-12-04T11:24:09;21.97;;;19.77;;
17169;SDS011;8700;48.222;16.342;2023-12-04T11:27:31;18.53;;;16.60;;
17169;SDS011;8700;48.222;16.342;2023-12-04T11:30:52;22.00;;;19.87;;
17169;SDS011;8700;48.222;16.342;2023-12-04T11:34:14;21.07;;;19.07;;
17169;SDS011;8700;48.222;16.342;2023-12-04T11:37:36;21.73;;;19.53;;
17169;SDS011;8700;48.222;16.342;2023-12-04T11:40:59;21.17;;;19.13;;
17169;SDS011;8700;48.222;16.342;2023-12-04T11:44:20;19.87;;;17.87;;
17169;SDS011;8700;48.222;16.342;2023-12-04T11:47:48;21.27;;;19.07;;
17169;SDS011;8700;48.222;16.342;2023-12-04T11:51:10;18.37;;;16.57;;
17169;SDS011;8700;48.222;16.342;2023-12-04T11:54:56;16.80;;;15.10;;
17169;SDS011;8700;48.222;16.342;2023-12-04T11:58:20;15.60;;;14.00;;
17169;SDS011;8700;48.222;16.342;2023-12-04T12:01:42;14.47;;;13.07;;
17169;SDS011;8700;48.222;16.342;2023-12-04T12:05:03;14.37;;;13.07;;
17169;SDS011;8700;48.222;16.342;2023-12-04T12:08:25;13.60;;;12.30;;
17169;SDS011;8700;48.222;16.342;2023-12-04T12:11:49;13.40;;;12.13;;
17169;SDS011;8700;48.222;16.342;2023-12-04T12:15:11;14.87;;;13.27;;
17169;SDS011;8700;48.222;16.342;2023-12-04T12:18:34;14.67;;;13.10;;
17169;SDS011;8700;48.222;16.342;2023-12-04T12:22:00;13.30;;;12.03;;
17169;SDS011;8700;48.222;16.342;2023-12-04T12:25:22;15.83;;;13.60;;
17169;SDS011;8700;48.222;16.342;2023-12-04T12:28:45;15.73;;;13.90;;
17169;SDS011;8700;48.222;16.342;2023-12-04T12:32:08;17.90;;;15.97;;
17169;SDS011;8700;48.222;16.342;2023-12-04T12:35:29;18.27;;;15.37;;
17169;SDS011;8700;48.222;16.342;2023-12-04T12:38:50;19.03;;;16.97;;
17169;SDS011;8700;48.222;16.342;2023-12-04T12:42:12;22.20;;;16.17;;
17169;SDS011;8700;48.222;16.342;2023-12-04T12:45:42;17.60;;;15.90;;
17169;SDS011;8700;48.222;16.342;2023-12-04T12:49:07;15.93;;;14.33;;
17169;SDS011;8700;48.222;16.342;2023-12-04T12:52:28;19.00;;;17.00;;
17169;SDS011;8700;48.222;16.342;2023-12-04T12:55:50;18.13;;;16.23;;
17169;SDS011;8700;48.222;16.342;2023-12-04T12:59:12;20.47;;;17.10;;
17169;SDS011;8700;48.222;16.342;2023-12-04T13:02:34;17.90;;;16.20;;
17169;SDS011;8700;48.222;16.342;2023-12-04T13:05:57;18.90;;;17.00;;
17169;SDS011;8700;48.222;16.342;2023-12-04T13:09:19;20.73;;;18.57;;
17169;SDS011;8700;48.222;16.342;2023-12-04T13:12:41;17.97;;;16.30;;
17169;SDS011;8700;48.222;16.342;2023-12-04T13:16:02;18.07;;;16.17;;
17169;SDS011;8700;48.222;16.342;2023-12-04T13:19:25;22.50;;;18.70;;
17169;SDS011;8700;48.222;16.342;2023-12-04T13:22:48;22.63;;;19.23;;
17169;SDS011;8700;48.222;16.342;2023-12-04T13:26:09;16.10;;;14.47;;
17169;SDS011;8700;48.222;16.342;2023-12-04T13:29:30;21.47;;;18.83;;
17169;SDS011;8700;48.222;16.342;2023-12-04T13:32:51;21.80;;;18.43;;
17169;SDS011;8700;48.222;16.342;2023-12-04T13:36:13;21.03;;;18.07;;
17169;SDS011;8700;48.222;16.342;2023-12-04T13:39:35;19.53;;;17.63;;
17169;SDS011;8700;48.222;16.342;2023-12-04T13:43:08;18.20;;;16.40;;
17169;SDS011;8700;48.222;16.342;2023-12-04T13:46:46;18.70;;;16.77;;
17169;SDS011;8700;48.222;16.342;2023-12-04T13:50:09;18.60;;;16.40;;
17169;SDS011;8700;48.222;16.342;2023-12-04T13:53:30;22.30;;;20.03;;
17169;SDS011;8700;48.222;16.342;2023-12-04T13:56:52;16.83;;;15.13;;
17169;SDS011;8700;48.222;16.342;2023-12-04T14:00:14;19.10;;;17.07;;
17169;SDS011;8700;48.222;16.342;2023-12-04T14:03:35;18.30;;;16.40;;
17169;SDS011;8700;48.222;16.342;2023-12-04T14:06:56;18.27;;;16.30;;
17169;SDS011;8700;48.222;16.342;2023-12-04T14:10:17;22.20;;;19.30;;
17169;SDS011;8700;48.222;16.342;2023-12-04T14:13:40;18.93;;;17.03;;
17169;SDS011;8700;48.222;16.342;2023-12-04T14:17:01;17.60;;;15.77;;
17169;SDS011;8700;48.222;16.342;2023-12-04T14:20:23;18.27;;;15.60;;
17169;SDS011;8700;48.222;16.342;2023-12-04T14:23:45;17.03;;;14.47;;
17169;SDS011;8700;48.222;16.342;2023-12-04T14:27:06;14.53;;;11.50;;
17169;SDS011;8700;48.222;16.342;2023-12-04T14:30:28;18.43;;;16.53;;
17169;SDS011;8700;48.222;16.342;2023-12-04T14:33:50;17.40;;;15.53;;
17169;SDS011;8700;48.222;16.342;2023-12-04T14:37:12;17.87;;;16.13;;
17169;SDS011;8700;48.222;16.342;2023-12-04T14:40:33;18.70;;;16.70;;
17169;SDS011;8700;48.222;16.342;2023-12-04T14:43:54;17.00;;;15.43;;
17169;SDS011;8700;48.222;16.342;2023-12-04T14:47:16;18.03;;;16.23;;
17169;SDS011;8700;48.222;16.342;2023-12-04T14:50:38;16.23;;;14.53;;
17169;SDS011;8700;48.222;16.342;2023-12-04T14:53:59;19.07;;;17.17;;
17169;SDS011;8700;48.222;16.342;2023-12-04T14:57:34;15.73;;;14.07;;
17169;SDS011;8700;48.222;16.342;2023-12-04T15:01:15;16.63;;;14.90;;
17169;SDS011;8700;48.222;16.342;2023-12-04T15:04:54;17.10;;;15.27;;
17169;SDS011;8700;48.222;16.342;2023-12-04T15:08:30;15.80;;;14.20;;
17169;SDS011;8700;48.222;16.342;2023-12-04T15:12:20;20.57;;;15.30;;
17169;SDS011;8700;48.222;16.342;2023-12-04T15:15:47;19.37;;;15.97;;
17169;SDS011;8700;48.222;16.342;2023-12-04T15:19:34;21.07;;;16.60;;
17169;SDS011;8700;48.222;16.342;2023-12-04T15:23:04;16.23;;;14.57;;
17169;SDS011;8700;48.222;16.342;2023-12-04T15:26:25;16.17;;;14.57;;
17169;SDS011;8700;48.222;16.342;2023-12-04T15:29:47;13.17;;;11.83;;
17169;SDS011;8700;48.222;16.342;2023-12-04T15:33:08;17.17;;;14.97;;
17169;SDS011;8700;48.222;16.342;2023-12-04T15:36:28;18.23;;;16.50;;
17169;SDS011;8700;48.222;16.342;2023-12-04T15:39:50;14.80;;;13.30;;
17169;SDS011;8700;48.222;16.342;2023-12-04T15:43:12;16.80;;;15.10;;
17169;SDS011;8700;48.222;16.342;2023-12-04T15:46:33;18.97;;;16.13;;
17169;SDS011;8700;48.222;16.342;2023-12-04T15:49:55;17.47;;;15.70;;
17169;SDS011;8700;48.222;16.342;2023-12-04T15:53:15;17.17;;;14.87;;
17169;SDS011;8700;48.222;16.342;2023-12-04T15:56:37;15.30;;;13.73;;
17169;SDS011;8700;48.222;16.342;2023-12-04T15:59:58;17.73;;;15.93;;
17169;SDS011;8700;48.222;16.342;2023-12-04T16:03:18;17.83;;;14.70;;
17169;SDS011;8700;48.222;16.342;2023-12-04T16:06:39;17.70;;;15.43;;
17169;SDS011;8700;48.222;16.342;2023-12-04T16:10:01;16.67;;;15.00;;
17169;SDS011;8700;48.222;16.342;2023-12-04T16:13:23;20.93;;;17.13;;
17169;SDS011;8700;48.222;16.342;2023-12-04T16:16:45;16.90;;;14.40;;
17169;SDS011;8700;48.222;16.342;2023-12-04T16:20:06;20.83;;;16.57;;
17169;SDS011;8700;48.222;16.342;2023-12-04T16:23:30;15.43;;;13.20;;
17169;SDS011;8700;48.222;16.342;2023-12-04T16:26:51;19.47;;;16.17;;
17169;SDS011;8700;48.222;16.342;2023-12-04T16:30:16;17.37;;;15.33;;
17169;SDS011;8700;48.222;16.342;2023-12-04T16:33:38;18.90;;;16.10;;
17169;SDS011;8700;48.222;16.342;2023-12-04T16:36:59;18.00;;;16.20;;
17169;SDS011;8700;48.222;16.342;2023-12-04T16:40:21;18.93;;;16.93;;
17169;SDS011;8700;48.222;16.342;2023-12-04T16:43:43;17.53;;;15.87;;
17169;SDS011;8700;48.222;16.342;2023-12-04T16:47:05;15.93;;;14.33;;
17169;SDS011;8700;48.222;16.342;2023-12-04T16:50:28;16.70;;;15.10;;
17169;SDS011;8700;48.222;16.342;2023-12-04T16:53:51;15.60;;;13.60;;
17169;SDS011;8700;48.222;16.342;2023-12-04T16:57:12;16.40;;;13.10;;
17169;SDS011;8700;48.222;16.342;2023-12-04T17:00:33;15.90;;;13.47;;
17169;SDS011;8700;48.222;16.342;2023-12-04T17:03:56;13.27;;;11.97;;
17169;SDS011;8700;48.222;16.342;2023-12-04T17:07:17;13.63;;;12.33;;
17169;SDS011;8700;48.222;16.342;2023-12-04T17:10:39;15.53;;;14.03;;
17169;SDS011;8700;48.222;16.342;2023-12-04T17:14:00;13.73;;;12.30;;
17169;SDS011;8700;48.222;16.342;2023-12-04T17:17:21;15.07;;;13.57;;
17169;SDS011;8700;48.222;16.342;2023-12-04T17:20:43;15.40;;;13.63;;
17169;SDS011;8700;48.222;16.342;2023-12-04T17:24:05;17.07;;;13.90;;
17169;SDS011;8700;48.222;16.342;2023-12-04T17:27:26;17.33;;;14.33;;
17169;SDS011;8700;48.222;16.342;2023-12-04T17:30:48;12.73;;;11.60;;
17169;SDS011;8700;48.222;16.342;2023-12-04T17:34:10;13.67;;;12.13;;
17169;SDS011;8700;48.222;16.342;2023-12-04T17:37:33;14.77;;;13.37;;
17169;SDS011;8700;48.222;16.342;2023-12-04T17:40:55;15.03;;;13.20;;
17169;SDS011;8700;48.222;16.342;2023-12-04T17:44:16;13.97;;;12.57;;
17169;SDS011;8700;48.222;16.342;2023-12-04T17:47:38;17.17;;;13.70;;
17169;SDS011;8700;48.222;16.342;2023-12-04T17:50:59;12.57;;;11.47;;
17169;SDS011;8700;48.222;16.342;2023-12-04T17:54:21;18.00;;;14.67;;
17169;SDS011;8700;48.222;16.342;2023-12-04T17:57:43;15.00;;;13.60;;
17169;SDS011;8700;48.222;16.342;2023-12-04T18:01:04;13.17;;;11.83;;
17169;SDS011;8700;48.222;16.342;2023-12-04T18:04:26;14.77;;;13.27;;
17169;SDS011;8700;48.222;16.342;2023-12-04T18:07:47;15.87;;;14.30;;
17169;SDS011;8700;48.222;16.342;2023-12-04T18:11:10;16.50;;;13.57;;
17169;SDS011;8700;48.222;16.342;2023-12-04T18:14:31;14.77;;;13.27;;
17169;SDS011;8700;48.222;16.342;2023-12-04T18:17:53;14.77;;;13.37;;
17169;SDS011;8700;48.222;16.342;2023-12-04T18:21:14;15.97;;;14.27;;
17169;SDS011;8700;48.222;16.342;2023-12-04T18:24:35;19.00;;;16.03;;
17169;SDS011;8700;48.222;16.342;2023-12-04T18:27:58;15.93;;;13.50;;
17169;SDS011;8700;48.222;16.342;2023-12-04T18:31:21;13.97;;;12.30;;
17169;SDS011;8700;48.222;16.342;2023-12-04T18:34:43;15.87;;;14.27;;
17169;SDS011;8700;48.222;16.342;2023-12-04T18:38:05;16.83;;;15.03;;
17169;SDS011;8700;48.222;16.342;2023-12-04T18:41:29;16.93;;;15.13;;
17169;SDS011;8700;48.222;16.342;2023-12-04T18:44:52;19.93;;;14.87;;
17169;SDS011;8700;48.222;16.342;2023-12-04T18:48:14;16.33;;;14.63;;
17169;SDS011;8700;48.222;16.342;2023-12-04T18:51:39;15.20;;;13.30;;
17169;SDS011;8700;48.222;16.342;2023-12-04T18:55:00;16.60;;;14.67;;
17169;SDS011;8700;48.222;16.342;2023-12-04T18:58:22;17.53;;;15.80;;
17169;SDS011;8700;48.222;16.342;2023-12-04T19:01:44;15.07;;;13.50;;
17169;SDS011;8700;48.222;16.342;2023-12-04T19:05:06;17.23;;;14.70;;
17169;SDS011;8700;48.222;16.342;2023-12-04T19:08:27;15.80;;;13.97;;
17169;SDS011;8700;48.222;16.342;2023-12-04T19:11:48;18.00;;;14.73;;
17169;SDS011;8700;48.222;16.342;2023-12-04T19:15:09;17.13;;;15.40;;
17169;SDS011;8700;48.222;16.342;2023-12-04T19:18:32;18.67;;;15.10;;
17169;SDS011;8700;48.222;16.342;2023-12-04T19:21:53;14.10;;;11.93;;
17169;SDS011;8700;48.222;16.342;2023-12-04T19:25:15;15.20;;;13.67;;
17169;SDS011;8700;48.222;16.342;2023-12-04T19:28:36;18.10;;;15.00;;
17169;SDS011;8700;48.222;16.342;2023-12-04T19:31:58;18.00;;;13.37;;
17169;SDS011;8700;48.222;16.342;2023-12-04T19:35:20;17.73;;;15.23;;
17169;SDS011;8700;48.222;16.342;2023-12-04T19:38:41;16.03;;;14.40;;
17169;SDS011;8700;48.222;16.342;2023-12-04T19:42:03;21.97;;;15.57;;